sensor_id;sensor_type;location;lat;lon;timestamp;temperature;humidity
66722;SHT31;53633;49.932;10.884;2023-02-17T00:02:15;3.83;96.35
66722;SHT31;53633;49.932;10.884;2023-02-17T00:04:42;3.86;96.01
66722;SHT31;53633;49.932;10.884;2023-02-17T00:07:09;3.86;96.51
66722;SHT31;53633;49.932;10.884;2023-02-17T00:09:35;3.85;96.37
66722;SHT31;53633;49.932;10.884;2023-02-17T00:12:03;3.91;96.18
66722;SHT31;53633;49.932;10.884;2023-02-17T00:14:31;3.94;96.15
66722;SHT31;53633;49.932;10.884;2023-02-17T00:16:58;3.93;96.51
66722;SHT31;53633;49.932;10.884;2023-02-17T00:19:24;4.06;96.43
66722;SHT31;53633;49.932;10.884;2023-02-17T00:21:53;4.07;96.62
66722;SHT31;53633;49.932;10.884;2023-02-17T00:24:20;4.11;96.53
66722;SHT31;53633;49.932;10.884;2023-02-17T00:26:47;4.17;96.58
66722;SHT31;53633;49.932;10.884;2023-02-17T00:29:15;4.21;96.65
66722;SHT31;53633;49.932;10.884;2023-02-17T00:31:43;4.22;96.75
66722;SHT31;53633;49.932;10.884;2023-02-17T00:34:10;4.28;96.64
66722;SHT31;53633;49.932;10.884;2023-02-17T00:36:38;4.31;96.58
66722;SHT31;53633;49.932;10.884;2023-02-17T00:39:05;4.37;96.70
66722;SHT31;53633;49.932;10.884;2023-02-17T00:41:34;4.46;96.30
66722;SHT31;53633;49.932;10.884;2023-02-17T00:44:01;4.52;95.96
66722;SHT31;53633;49.932;10.884;2023-02-17T00:46:28;4.62;96.12
66722;SHT31;53633;49.932;10.884;2023-02-17T00:48:56;4.71;95.64
66722;SHT31;53633;49.932;10.884;2023-02-17T00:51:24;4.84;95.35
66722;SHT31;53633;49.932;10.884;2023-02-17T00:53:51;5.00;94.68
66722;SHT31;53633;49.932;10.884;2023-02-17T00:56:18;5.59;92.42
66722;SHT31;53633;49.932;10.884;2023-02-17T00:58:45;5.92;90.55
66722;SHT31;53633;49.932;10.884;2023-02-17T01:01:12;6.17;89.50
66722;SHT31;53633;49.932;10.884;2023-02-17T01:03:39;6.28;89.00
66722;SHT31;53633;49.932;10.884;2023-02-17T01:06:10;6.37;88.69
66722;SHT31;53633;49.932;10.884;2023-02-17T01:08:40;6.44;88.38
66722;SHT31;53633;49.932;10.884;2023-02-17T01:11:16;6.45;88.53
66722;SHT31;53633;49.932;10.884;2023-02-17T01:13:43;6.48;88.65
66722;SHT31;53633;49.932;10.884;2023-02-17T01:16:16;6.37;89.01
66722;SHT31;53633;49.932;10.884;2023-02-17T01:18:43;6.35;89.49
66722;SHT31;53633;49.932;10.884;2023-02-17T01:21:16;6.34;89.19
66722;SHT31;53633;49.932;10.884;2023-02-17T01:23:44;6.33;89.36
66722;SHT31;53633;49.932;10.884;2023-02-17T01:26:14;6.27;89.72
66722;SHT31;53633;49.932;10.884;2023-02-17T01:28:41;6.31;89.56
66722;SHT31;53633;49.932;10.884;2023-02-17T01:31:08;6.35;89.50
66722;SHT31;53633;49.932;10.884;2023-02-17T01:33:35;6.49;89.14
66722;SHT31;53633;49.932;10.884;2023-02-17T01:36:03;6.51;89.55
66722;SHT31;53633;49.932;10.884;2023-02-17T01:38:32;6.44;90.36
66722;SHT31;53633;49.932;10.884;2023-02-17T01:40:58;6.52;89.87
66722;SHT31;53633;49.932;10.884;2023-02-17T01:43:25;6.56;89.98
66722;SHT31;53633;49.932;10.884;2023-02-17T01:45:54;6.71;89.84
66722;SHT31;53633;49.932;10.884;2023-02-17T01:48:23;6.90;89.39
66722;SHT31;53633;49.932;10.884;2023-02-17T01:50:54;6.92;89.46
66722;SHT31;53633;49.932;10.884;2023-02-17T01:53:25;6.82;89.62
66722;SHT31;53633;49.932;10.884;2023-02-17T01:55:55;6.99;89.55
66722;SHT31;53633;49.932;10.884;2023-02-17T01:58:23;6.97;89.50
66722;SHT31;53633;49.932;10.884;2023-02-17T02:00:52;6.96;89.64
66722;SHT31;53633;49.932;10.884;2023-02-17T02:03:20;7.04;89.65
66722;SHT31;53633;49.932;10.884;2023-02-17T02:05:47;7.06;90.09
66722;SHT31;53633;49.932;10.884;2023-02-17T02:08:14;7.31;89.57
66722;SHT31;53633;49.932;10.884;2023-02-17T02:10:41;7.23;90.02
66722;SHT31;53633;49.932;10.884;2023-02-17T02:13:10;7.21;90.10
66722;SHT31;53633;49.932;10.884;2023-02-17T02:15:40;7.13;90.49
66722;SHT31;53633;49.932;10.884;2023-02-17T02:18:24;7.10;90.50
66722;SHT31;53633;49.932;10.884;2023-02-17T02:24:15;7.03;90.90
66722;SHT31;53633;49.932;10.884;2023-02-17T02:30:07;7.10;90.85
66722;SHT31;53633;49.932;10.884;2023-02-17T02:32:48;7.13;90.91
66722;SHT31;53633;49.932;10.884;2023-02-17T02:35:23;7.11;90.94
66722;SHT31;53633;49.932;10.884;2023-02-17T02:37:55;7.09;91.29
66722;SHT31;53633;49.932;10.884;2023-02-17T02:40:28;7.14;91.22
66722;SHT31;53633;49.932;10.884;2023-02-17T02:42:57;7.09;90.77
66722;SHT31;53633;49.932;10.884;2023-02-17T02:45:26;7.00;91.71
66722;SHT31;53633;49.932;10.884;2023-02-17T02:47:55;6.95;91.78
66722;SHT31;53633;49.932;10.884;2023-02-17T02:50:32;6.92;92.06
66722;SHT31;53633;49.932;10.884;2023-02-17T02:53:16;6.97;92.03
66722;SHT31;53633;49.932;10.884;2023-02-17T02:55:51;6.99;91.89
66722;SHT31;53633;49.932;10.884;2023-02-17T02:58:21;6.92;91.60
66722;SHT31;53633;49.932;10.884;2023-02-17T03:00:54;6.99;91.68
66722;SHT31;53633;49.932;10.884;2023-02-17T03:03:28;6.95;91.79
66722;SHT31;53633;49.932;10.884;2023-02-17T03:06:03;7.00;91.79
66722;SHT31;53633;49.932;10.884;2023-02-17T03:08:35;7.10;91.11
66722;SHT31;53633;49.932;10.884;2023-02-17T03:11:04;7.13;91.41
66722;SHT31;53633;49.932;10.884;2023-02-17T03:13:32;7.10;91.31
66722;SHT31;53633;49.932;10.884;2023-02-17T03:15:59;7.10;91.52
66722;SHT31;53633;49.932;10.884;2023-02-17T03:18:27;7.14;92.05
66722;SHT31;53633;49.932;10.884;2023-02-17T03:20:55;7.14;92.22
66722;SHT31;53633;49.932;10.884;2023-02-17T03:23:22;7.14;92.14
66722;SHT31;53633;49.932;10.884;2023-02-17T03:25:49;7.06;92.34
66722;SHT31;53633;49.932;10.884;2023-02-17T03:28:16;7.03;92.75
66722;SHT31;53633;49.932;10.884;2023-02-17T03:30:43;7.13;92.59
66722;SHT31;53633;49.932;10.884;2023-02-17T03:33:10;7.14;92.37
66722;SHT31;53633;49.932;10.884;2023-02-17T03:35:38;7.14;92.18
66722;SHT31;53633;49.932;10.884;2023-02-17T03:38:05;7.21;92.23
66722;SHT31;53633;49.932;10.884;2023-02-17T03:40:31;7.24;92.14
66722;SHT31;53633;49.932;10.884;2023-02-17T03:42:58;7.14;92.23
66722;SHT31;53633;49.932;10.884;2023-02-17T03:45:25;7.21;91.62
66722;SHT31;53633;49.932;10.884;2023-02-17T03:47:52;7.24;91.96
66722;SHT31;53633;49.932;10.884;2023-02-17T03:50:18;7.23;91.94
66722;SHT31;53633;49.932;10.884;2023-02-17T03:52:47;7.19;92.23
66722;SHT31;53633;49.932;10.884;2023-02-17T03:55:13;7.17;92.34
66722;SHT31;53633;49.932;10.884;2023-02-17T03:57:40;7.23;92.91
66722;SHT31;53633;49.932;10.884;2023-02-17T04:00:07;7.27;92.75
66722;SHT31;53633;49.932;10.884;2023-02-17T04:02:34;7.30;93.32
66722;SHT31;53633;49.932;10.884;2023-02-17T04:05:01;7.28;92.91
66722;SHT31;53633;49.932;10.884;2023-02-17T04:07:28;7.26;93.55
66722;SHT31;53633;49.932;10.884;2023-02-17T04:09:56;7.24;93.58
66722;SHT31;53633;49.932;10.884;2023-02-17T04:12:23;7.20;93.67
66722;SHT31;53633;49.932;10.884;2023-02-17T04:14:50;7.17;94.27
66722;SHT31;53633;49.932;10.884;2023-02-17T04:17:16;7.11;94.08
66722;SHT31;53633;49.932;10.884;2023-02-17T04:19:43;7.10;94.26
66722;SHT31;53633;49.932;10.884;2023-02-17T04:22:10;7.10;93.97
66722;SHT31;53633;49.932;10.884;2023-02-17T04:24:37;7.20;94.10
66722;SHT31;53633;49.932;10.884;2023-02-17T04:27:05;7.20;94.20
66722;SHT31;53633;49.932;10.884;2023-02-17T04:29:32;7.13;94.11
66722;SHT31;53633;49.932;10.884;2023-02-17T04:31:59;7.07;93.96
66722;SHT31;53633;49.932;10.884;2023-02-17T04:34:25;7.04;94.03
66722;SHT31;53633;49.932;10.884;2023-02-17T04:36:52;7.07;94.00
66722;SHT31;53633;49.932;10.884;2023-02-17T04:39:19;7.14;94.09
66722;SHT31;53633;49.932;10.884;2023-02-17T04:41:46;7.13;93.67
66722;SHT31;53633;49.932;10.884;2023-02-17T04:44:14;7.14;93.62
66722;SHT31;53633;49.932;10.884;2023-02-17T04:46:41;7.09;93.74
66722;SHT31;53633;49.932;10.884;2023-02-17T04:49:08;7.06;93.43
66722;SHT31;53633;49.932;10.884;2023-02-17T04:51:34;7.27;93.12
66722;SHT31;53633;49.932;10.884;2023-02-17T04:54:01;7.35;92.82
66722;SHT31;53633;49.932;10.884;2023-02-17T04:56:28;7.30;93.11
66722;SHT31;53633;49.932;10.884;2023-02-17T04:58:55;7.32;93.03
66722;SHT31;53633;49.932;10.884;2023-02-17T05:01:23;7.26;93.13
66722;SHT31;53633;49.932;10.884;2023-02-17T05:03:50;7.26;93.09
66722;SHT31;53633;49.932;10.884;2023-02-17T05:06:16;7.23;93.19
66722;SHT31;53633;49.932;10.884;2023-02-17T05:08:43;7.20;93.20
66722;SHT31;53633;49.932;10.884;2023-02-17T05:11:10;7.16;93.32
66722;SHT31;53633;49.932;10.884;2023-02-17T05:13:36;7.23;92.80
66722;SHT31;53633;49.932;10.884;2023-02-17T05:16:03;7.31;92.42
66722;SHT31;53633;49.932;10.884;2023-02-17T05:18:32;7.45;91.84
66722;SHT31;53633;49.932;10.884;2023-02-17T05:20:59;7.45;91.75
66722;SHT31;53633;49.932;10.884;2023-02-17T05:23:26;7.40;91.93
66722;SHT31;53633;49.932;10.884;2023-02-17T05:25:52;7.38;91.66
66722;SHT31;53633;49.932;10.884;2023-02-17T05:28:19;7.32;91.95
66722;SHT31;53633;49.932;10.884;2023-02-17T05:30:47;7.38;91.79
66722;SHT31;53633;49.932;10.884;2023-02-17T05:33:14;7.40;91.91
66722;SHT31;53633;49.932;10.884;2023-02-17T05:35:42;7.35;91.84
66722;SHT31;53633;49.932;10.884;2023-02-17T05:38:09;7.45;91.54
66722;SHT31;53633;49.932;10.884;2023-02-17T05:40:36;7.41;91.52
66722;SHT31;53633;49.932;10.884;2023-02-17T05:43:02;7.45;92.08
66722;SHT31;53633;49.932;10.884;2023-02-17T05:45:29;7.57;90.96
66722;SHT31;53633;49.932;10.884;2023-02-17T05:47:56;7.51;91.67
66722;SHT31;53633;49.932;10.884;2023-02-17T05:50:23;7.55;91.42
66722;SHT31;53633;49.932;10.884;2023-02-17T05:52:51;7.75;91.13
66722;SHT31;53633;49.932;10.884;2023-02-17T05:55:18;7.82;91.24
66722;SHT31;53633;49.932;10.884;2023-02-17T05:57:44;7.96;90.69
66722;SHT31;53633;49.932;10.884;2023-02-17T06:00:12;8.07;90.21
66722;SHT31;53633;49.932;10.884;2023-02-17T06:02:39;8.13;90.28
66722;SHT31;53633;49.932;10.884;2023-02-17T06:05:07;8.13;90.24
66722;SHT31;53633;49.932;10.884;2023-02-17T06:07:34;8.24;90.17
66722;SHT31;53633;49.932;10.884;2023-02-17T06:10:02;8.24;89.78
66722;SHT31;53633;49.932;10.884;2023-02-17T06:12:29;8.26;90.03
66722;SHT31;53633;49.932;10.884;2023-02-17T06:14:56;8.22;90.25
66722;SHT31;53633;49.932;10.884;2023-02-17T06:17:23;8.20;90.37
66722;SHT31;53633;49.932;10.884;2023-02-17T06:19:49;8.40;89.74
66722;SHT31;53633;49.932;10.884;2023-02-17T06:22:16;8.37;90.02
66722;SHT31;53633;49.932;10.884;2023-02-17T06:24:44;8.36;89.83
66722;SHT31;53633;49.932;10.884;2023-02-17T06:27:12;8.33;90.16
66722;SHT31;53633;49.932;10.884;2023-02-17T06:29:39;8.33;89.90
66722;SHT31;53633;49.932;10.884;2023-02-17T06:32:06;8.37;90.07
66722;SHT31;53633;49.932;10.884;2023-02-17T06:34:32;8.38;89.92
66722;SHT31;53633;49.932;10.884;2023-02-17T06:36:59;8.38;90.22
66722;SHT31;53633;49.932;10.884;2023-02-17T06:39:26;8.44;90.16
66722;SHT31;53633;49.932;10.884;2023-02-17T06:41:53;8.45;90.08
66722;SHT31;53633;49.932;10.884;2023-02-17T06:44:21;8.51;89.98
66722;SHT31;53633;49.932;10.884;2023-02-17T06:46:47;8.47;90.17
66722;SHT31;53633;49.932;10.884;2023-02-17T06:49:14;8.52;89.83
66722;SHT31;53633;49.932;10.884;2023-02-17T06:51:41;8.44;89.94
66722;SHT31;53633;49.932;10.884;2023-02-17T06:54:08;8.44;90.10
66722;SHT31;53633;49.932;10.884;2023-02-17T06:56:35;8.41;90.62
66722;SHT31;53633;49.932;10.884;2023-02-17T06:59:02;8.40;90.55
66722;SHT31;53633;49.932;10.884;2023-02-17T07:01:30;8.52;90.30
66722;SHT31;53633;49.932;10.884;2023-02-17T07:03:56;8.45;90.60
66722;SHT31;53633;49.932;10.884;2023-02-17T07:06:24;8.48;90.48
66722;SHT31;53633;49.932;10.884;2023-02-17T07:08:51;8.41;90.66
66722;SHT31;53633;49.932;10.884;2023-02-17T07:11:18;8.30;91.12
66722;SHT31;53633;49.932;10.884;2023-02-17T07:13:45;8.40;90.97
66722;SHT31;53633;49.932;10.884;2023-02-17T07:16:13;8.44;90.60
66722;SHT31;53633;49.932;10.884;2023-02-17T07:18:41;8.42;90.56
66722;SHT31;53633;49.932;10.884;2023-02-17T07:21:08;8.37;90.98
66722;SHT31;53633;49.932;10.884;2023-02-17T07:23:35;8.52;90.08
66722;SHT31;53633;49.932;10.884;2023-02-17T07:26:03;8.60;90.42
66722;SHT31;53633;49.932;10.884;2023-02-17T07:28:31;8.67;90.03
66722;SHT31;53633;49.932;10.884;2023-02-17T07:31:04;8.67;90.19
66722;SHT31;53633;49.932;10.884;2023-02-17T07:33:30;8.67;90.01
66722;SHT31;53633;49.932;10.884;2023-02-17T07:35:59;8.69;89.77
66722;SHT31;53633;49.932;10.884;2023-02-17T07:38:25;8.67;90.20
66722;SHT31;53633;49.932;10.884;2023-02-17T07:40:52;8.72;90.14
66722;SHT31;53633;49.932;10.884;2023-02-17T07:43:19;8.69;90.21
66722;SHT31;53633;49.932;10.884;2023-02-17T07:45:46;8.64;90.74
66722;SHT31;53633;49.932;10.884;2023-02-17T07:48:12;8.71;90.45
66722;SHT31;53633;49.932;10.884;2023-02-17T07:50:39;8.73;90.66
66722;SHT31;53633;49.932;10.884;2023-02-17T07:53:07;8.80;90.50
66722;SHT31;53633;49.932;10.884;2023-02-17T07:55:34;8.82;90.72
66722;SHT31;53633;49.932;10.884;2023-02-17T07:58:01;8.83;90.52
66722;SHT31;53633;49.932;10.884;2023-02-17T08:00:28;8.83;90.65
66722;SHT31;53633;49.932;10.884;2023-02-17T08:02:54;8.78;90.79
66722;SHT31;53633;49.932;10.884;2023-02-17T08:05:21;8.85;90.71
66722;SHT31;53633;49.932;10.884;2023-02-17T08:07:48;8.80;91.03
66722;SHT31;53633;49.932;10.884;2023-02-17T08:10:18;8.83;91.11
66722;SHT31;53633;49.932;10.884;2023-02-17T08:12:44;8.86;90.85
66722;SHT31;53633;49.932;10.884;2023-02-17T08:15:12;8.85;91.13
66722;SHT31;53633;49.932;10.884;2023-02-17T08:17:38;8.85;91.17
66722;SHT31;53633;49.932;10.884;2023-02-17T08:20:06;8.88;91.31
66722;SHT31;53633;49.932;10.884;2023-02-17T08:22:35;8.82;91.56
66722;SHT31;53633;49.932;10.884;2023-02-17T08:25:01;8.83;91.29
66722;SHT31;53633;49.932;10.884;2023-02-17T08:27:30;8.85;91.49
66722;SHT31;53633;49.932;10.884;2023-02-17T08:29:56;8.88;91.52
66722;SHT31;53633;49.932;10.884;2023-02-17T08:32:23;8.98;91.21
66722;SHT31;53633;49.932;10.884;2023-02-17T08:34:54;9.00;91.24
66722;SHT31;53633;49.932;10.884;2023-02-17T08:37:21;9.06;90.98
66722;SHT31;53633;49.932;10.884;2023-02-17T08:39:47;9.10;91.03
66722;SHT31;53633;49.932;10.884;2023-02-17T08:42:14;9.05;91.67
66722;SHT31;53633;49.932;10.884;2023-02-17T08:44:42;9.07;91.44
66722;SHT31;53633;49.932;10.884;2023-02-17T08:47:09;9.13;91.29
66722;SHT31;53633;49.932;10.884;2023-02-17T08:49:36;9.02;91.95
66722;SHT31;53633;49.932;10.884;2023-02-17T08:52:04;9.05;91.92
66722;SHT31;53633;49.932;10.884;2023-02-17T08:54:30;9.07;91.93
66722;SHT31;53633;49.932;10.884;2023-02-17T08:56:57;9.13;91.61
66722;SHT31;53633;49.932;10.884;2023-02-17T08:59:24;9.10;91.84
66722;SHT31;53633;49.932;10.884;2023-02-17T09:01:52;9.13;92.18
66722;SHT31;53633;49.932;10.884;2023-02-17T09:04:19;9.16;91.91
66722;SHT31;53633;49.932;10.884;2023-02-17T09:06:48;9.13;92.26
66722;SHT31;53633;49.932;10.884;2023-02-17T09:09:18;9.15;92.05
66722;SHT31;53633;49.932;10.884;2023-02-17T09:11:45;9.15;92.07
66722;SHT31;53633;49.932;10.884;2023-02-17T09:14:12;9.17;92.12
66722;SHT31;53633;49.932;10.884;2023-02-17T09:16:39;9.15;92.18
66722;SHT31;53633;49.932;10.884;2023-02-17T09:19:08;9.16;92.14
66722;SHT31;53633;49.932;10.884;2023-02-17T09:21:35;9.10;92.80
66722;SHT31;53633;49.932;10.884;2023-02-17T09:24:02;9.09;92.80
66722;SHT31;53633;49.932;10.884;2023-02-17T09:26:29;9.16;92.19
66722;SHT31;53633;49.932;10.884;2023-02-17T09:28:56;9.22;91.98
66722;SHT31;53633;49.932;10.884;2023-02-17T09:31:24;9.27;91.67
66722;SHT31;53633;49.932;10.884;2023-02-17T09:33:52;9.24;91.97
66722;SHT31;53633;49.932;10.884;2023-02-17T09:36:22;9.30;91.79
66722;SHT31;53633;49.932;10.884;2023-02-17T09:38:50;9.36;91.52
66722;SHT31;53633;49.932;10.884;2023-02-17T09:41:20;9.40;91.37
66722;SHT31;53633;49.932;10.884;2023-02-17T09:43:48;9.37;91.67
66722;SHT31;53633;49.932;10.884;2023-02-17T09:46:20;9.43;91.40
66722;SHT31;53633;49.932;10.884;2023-02-17T09:48:49;9.40;91.61
66722;SHT31;53633;49.932;10.884;2023-02-17T09:51:27;9.52;91.03
66722;SHT31;53633;49.932;10.884;2023-02-17T09:54:03;9.51;90.81
66722;SHT31;53633;49.932;10.884;2023-02-17T09:56:34;9.48;91.15
66722;SHT31;53633;49.932;10.884;2023-02-17T09:59:05;9.50;91.06
66722;SHT31;53633;49.932;10.884;2023-02-17T10:01:35;9.54;90.87
66722;SHT31;53633;49.932;10.884;2023-02-17T10:04:07;9.61;90.29
66722;SHT31;53633;49.932;10.884;2023-02-17T10:06:40;9.58;90.68
66722;SHT31;53633;49.932;10.884;2023-02-17T10:09:11;9.65;90.33
66722;SHT31;53633;49.932;10.884;2023-02-17T10:11:44;9.67;90.41
66722;SHT31;53633;49.932;10.884;2023-02-17T10:14:16;9.64;90.51
66722;SHT31;53633;49.932;10.884;2023-02-17T10:16:48;9.72;90.19
66722;SHT31;53633;49.932;10.884;2023-02-17T10:19:20;9.78;90.16
66722;SHT31;53633;49.932;10.884;2023-02-17T10:21:57;9.81;89.90
66722;SHT31;53633;49.932;10.884;2023-02-17T10:24:24;9.85;89.83
66722;SHT31;53633;49.932;10.884;2023-02-17T10:27:01;9.89;89.81
66722;SHT31;53633;49.932;10.884;2023-02-17T10:29:41;9.91;89.28
66722;SHT31;53633;49.932;10.884;2023-02-17T10:32:20;9.93;89.74
66722;SHT31;53633;49.932;10.884;2023-02-17T10:35:00;9.93;90.11
66722;SHT31;53633;49.932;10.884;2023-02-17T10:37:37;9.88;90.11
66722;SHT31;53633;49.932;10.884;2023-02-17T10:40:11;9.96;89.86
66722;SHT31;53633;49.932;10.884;2023-02-17T10:42:40;9.93;90.08
66722;SHT31;53633;49.932;10.884;2023-02-17T10:45:12;9.92;89.82
66722;SHT31;53633;49.932;10.884;2023-02-17T10:47:41;9.91;90.21
66722;SHT31;53633;49.932;10.884;2023-02-17T10:50:17;9.96;90.09
66722;SHT31;53633;49.932;10.884;2023-02-17T10:52:49;9.98;89.67
66722;SHT31;53633;49.932;10.884;2023-02-17T10:55:24;10.03;89.38
66722;SHT31;53633;49.932;10.884;2023-02-17T10:57:59;10.03;89.39
66722;SHT31;53633;49.932;10.884;2023-02-17T11:00:28;10.01;90.03
66722;SHT31;53633;49.932;10.884;2023-02-17T11:02:55;10.05;90.51
66722;SHT31;53633;49.932;10.884;2023-02-17T11:05:24;10.02;90.93
66722;SHT31;53633;49.932;10.884;2023-02-17T11:07:57;10.06;90.80
66722;SHT31;53633;49.932;10.884;2023-02-17T11:10:28;10.12;90.91
66722;SHT31;53633;49.932;10.884;2023-02-17T11:12:55;10.19;91.11
66722;SHT31;53633;49.932;10.884;2023-02-17T11:15:25;10.29;90.01
66722;SHT31;53633;49.932;10.884;2023-02-17T11:17:52;10.30;90.03
66722;SHT31;53633;49.932;10.884;2023-02-17T11:20:34;10.37;90.08
66722;SHT31;53633;49.932;10.884;2023-02-17T11:23:06;10.47;89.57
66722;SHT31;53633;49.932;10.884;2023-02-17T11:25:35;10.46;89.65
66722;SHT31;53633;49.932;10.884;2023-02-17T11:28:04;10.54;89.66
66722;SHT31;53633;49.932;10.884;2023-02-17T11:30:34;10.65;89.25
66722;SHT31;53633;49.932;10.884;2023-02-17T11:33:11;10.63;89.30
66722;SHT31;53633;49.932;10.884;2023-02-17T11:35:48;10.65;89.25
66722;SHT31;53633;49.932;10.884;2023-02-17T11:38:18;10.58;89.17
66722;SHT31;53633;49.932;10.884;2023-02-17T11:40:54;10.54;89.35
66722;SHT31;53633;49.932;10.884;2023-02-17T11:43:22;10.53;89.36
66722;SHT31;53633;49.932;10.884;2023-02-17T11:45:54;10.46;89.69
66722;SHT31;53633;49.932;10.884;2023-02-17T11:48:59;10.48;90.11
66722;SHT31;53633;49.932;10.884;2023-02-17T11:51:37;10.48;89.89
66722;SHT31;53633;49.932;10.884;2023-02-17T11:54:13;10.43;89.76
66722;SHT31;53633;49.932;10.884;2023-02-17T11:56:46;10.41;90.06
66722;SHT31;53633;49.932;10.884;2023-02-17T11:59:28;10.48;89.54
66722;SHT31;53633;49.932;10.884;2023-02-17T12:02:16;10.51;89.73
66722;SHT31;53633;49.932;10.884;2023-02-17T12:04:53;10.56;89.41
66722;SHT31;53633;49.932;10.884;2023-02-17T12:07:35;10.63;89.39
66722;SHT31;53633;49.932;10.884;2023-02-17T12:10:12;10.61;89.01
66722;SHT31;53633;49.932;10.884;2023-02-17T12:12:55;10.65;89.28
66722;SHT31;53633;49.932;10.884;2023-02-17T12:15:30;10.75;88.90
66722;SHT31;53633;49.932;10.884;2023-02-17T12:18:08;10.79;88.57
66722;SHT31;53633;49.932;10.884;2023-02-17T12:20:45;10.85;88.34
66722;SHT31;53633;49.932;10.884;2023-02-17T12:23:26;10.79;88.48
66722;SHT31;53633;49.932;10.884;2023-02-17T12:26:02;10.82;88.39
66722;SHT31;53633;49.932;10.884;2023-02-17T12:28:44;10.88;88.19
66722;SHT31;53633;49.932;10.884;2023-02-17T12:31:23;10.91;88.20
66722;SHT31;53633;49.932;10.884;2023-02-17T12:33:56;10.89;88.10
66722;SHT31;53633;49.932;10.884;2023-02-17T12:36:28;10.95;88.08
66722;SHT31;53633;49.932;10.884;2023-02-17T12:39:00;11.01;87.93
66722;SHT31;53633;49.932;10.884;2023-02-17T12:41:33;11.08;87.98
66722;SHT31;53633;49.932;10.884;2023-02-17T12:44:05;11.11;87.46
66722;SHT31;53633;49.932;10.884;2023-02-17T12:46:36;11.15;87.58
66722;SHT31;53633;49.932;10.884;2023-02-17T12:49:09;11.15;87.56
66722;SHT31;53633;49.932;10.884;2023-02-17T12:51:40;11.12;87.70
66722;SHT31;53633;49.932;10.884;2023-02-17T12:54:13;11.08;87.79
66722;SHT31;53633;49.932;10.884;2023-02-17T12:57:16;11.09;87.88
66722;SHT31;53633;49.932;10.884;2023-02-17T12:59:45;11.13;87.72
66722;SHT31;53633;49.932;10.884;2023-02-17T13:02:13;11.22;87.27
66722;SHT31;53633;49.932;10.884;2023-02-17T13:04:42;11.27;87.14
66722;SHT31;53633;49.932;10.884;2023-02-17T13:07:34;11.39;87.13
66722;SHT31;53633;49.932;10.884;2023-02-17T13:10:05;11.47;86.58
66722;SHT31;53633;49.932;10.884;2023-02-17T13:12:38;11.60;86.34
66722;SHT31;53633;49.932;10.884;2023-02-17T13:15:25;11.81;85.76
66722;SHT31;53633;49.932;10.884;2023-02-17T13:17:54;11.89;85.26
66722;SHT31;53633;49.932;10.884;2023-02-17T13:20:27;11.85;85.22
66722;SHT31;53633;49.932;10.884;2023-02-17T13:23:07;11.77;85.69
66722;SHT31;53633;49.932;10.884;2023-02-17T13:25:34;11.67;85.81
66722;SHT31;53633;49.932;10.884;2023-02-17T13:28:33;11.59;86.00
66722;SHT31;53633;49.932;10.884;2023-02-17T13:31:09;11.49;86.39
66722;SHT31;53633;49.932;10.884;2023-02-17T13:33:42;11.43;86.98
66722;SHT31;53633;49.932;10.884;2023-02-17T13:36:14;11.44;86.76
66722;SHT31;53633;49.932;10.884;2023-02-17T13:38:52;11.44;87.05
66722;SHT31;53633;49.932;10.884;2023-02-17T13:41:19;11.51;86.87
66722;SHT31;53633;49.932;10.884;2023-02-17T13:43:48;11.57;86.49
66722;SHT31;53633;49.932;10.884;2023-02-17T13:46:17;11.69;86.49
66722;SHT31;53633;49.932;10.884;2023-02-17T13:48:45;11.75;86.04
66722;SHT31;53633;49.932;10.884;2023-02-17T13:51:24;11.69;86.36
66722;SHT31;53633;49.932;10.884;2023-02-17T13:53:51;11.59;86.55
66722;SHT31;53633;49.932;10.884;2023-02-17T13:56:24;11.54;86.84
66722;SHT31;53633;49.932;10.884;2023-02-17T13:58:53;11.59;86.56
66722;SHT31;53633;49.932;10.884;2023-02-17T14:01:23;11.49;86.99
66722;SHT31;53633;49.932;10.884;2023-02-17T14:03:53;11.53;86.89
66722;SHT31;53633;49.932;10.884;2023-02-17T14:06:24;11.60;86.63
66722;SHT31;53633;49.932;10.884;2023-02-17T14:08:52;11.59;86.58
66722;SHT31;53633;49.932;10.884;2023-02-17T14:11:20;11.60;86.54
66722;SHT31;53633;49.932;10.884;2023-02-17T14:13:49;11.50;86.91
66722;SHT31;53633;49.932;10.884;2023-02-17T14:16:29;11.46;87.08
66722;SHT31;53633;49.932;10.884;2023-02-17T14:19:05;11.50;86.81
66722;SHT31;53633;49.932;10.884;2023-02-17T14:21:32;11.49;86.88
66722;SHT31;53633;49.932;10.884;2023-02-17T14:24:00;11.49;87.08
66722;SHT31;53633;49.932;10.884;2023-02-17T14:26:30;11.43;87.25
66722;SHT31;53633;49.932;10.884;2023-02-17T14:28:58;11.40;87.15
66722;SHT31;53633;49.932;10.884;2023-02-17T14:31:26;11.37;87.34
66722;SHT31;53633;49.932;10.884;2023-02-17T14:33:57;11.42;87.10
66722;SHT31;53633;49.932;10.884;2023-02-17T14:36:30;11.36;87.45
66722;SHT31;53633;49.932;10.884;2023-02-17T14:38:58;11.42;87.34
66722;SHT31;53633;49.932;10.884;2023-02-17T14:41:25;11.37;87.36
66722;SHT31;53633;49.932;10.884;2023-02-17T14:43:52;11.37;87.29
66722;SHT31;53633;49.932;10.884;2023-02-17T14:46:19;11.39;87.23
66722;SHT31;53633;49.932;10.884;2023-02-17T14:48:46;11.40;87.35
66722;SHT31;53633;49.932;10.884;2023-02-17T14:51:16;11.50;86.97
66722;SHT31;53633;49.932;10.884;2023-02-17T14:53:44;11.43;87.01
66722;SHT31;53633;49.932;10.884;2023-02-17T14:56:16;11.36;87.29
66722;SHT31;53633;49.932;10.884;2023-02-17T14:58:45;11.42;87.22
66722;SHT31;53633;49.932;10.884;2023-02-17T15:01:12;11.37;87.12
66722;SHT31;53633;49.932;10.884;2023-02-17T15:03:40;11.34;87.31
66722;SHT31;53633;49.932;10.884;2023-02-17T15:06:12;11.34;87.32
66722;SHT31;53633;49.932;10.884;2023-02-17T15:08:40;11.34;87.19
66722;SHT31;53633;49.932;10.884;2023-02-17T15:11:14;11.27;87.59
66722;SHT31;53633;49.932;10.884;2023-02-17T15:13:42;11.24;87.73
66722;SHT31;53633;49.932;10.884;2023-02-17T15:16:09;11.30;87.53
66722;SHT31;53633;49.932;10.884;2023-02-17T15:18:36;11.23;87.76
66722;SHT31;53633;49.932;10.884;2023-02-17T15:21:16;11.27;87.78
66722;SHT31;53633;49.932;10.884;2023-02-17T15:23:47;11.26;87.81
66722;SHT31;53633;49.932;10.884;2023-02-17T15:26:14;11.26;87.75
66722;SHT31;53633;49.932;10.884;2023-02-17T15:28:41;11.26;87.76
66722;SHT31;53633;49.932;10.884;2023-02-17T15:31:09;11.32;87.81
66722;SHT31;53633;49.932;10.884;2023-02-17T15:33:37;11.29;88.10
66722;SHT31;53633;49.932;10.884;2023-02-17T15:36:05;11.26;87.96
66722;SHT31;53633;49.932;10.884;2023-02-17T15:38:32;11.22;88.14
66722;SHT31;53633;49.932;10.884;2023-02-17T15:41:00;11.24;88.09
66722;SHT31;53633;49.932;10.884;2023-02-17T15:43:32;11.22;88.16
66722;SHT31;53633;49.932;10.884;2023-02-17T15:46:10;11.22;88.10
66722;SHT31;53633;49.932;10.884;2023-02-17T15:48:38;11.22;88.24